createdAt,value
2018-11-26T00:00:48.498Z,18.92
2018-11-26T00:01:48.450Z,18.95
2018-11-26T00:02:48.403Z,18.95
2018-11-26T00:03:48.354Z,18.94
2018-11-26T00:04:48.307Z,19.04
2018-11-26T00:05:48.259Z,19.00
2018-11-26T00:06:48.212Z,19.00
2018-11-26T00:07:48.213Z,18.95
2018-11-26T00:08:48.116Z,18.95
2018-11-26T00:09:48.069Z,18.92
2018-11-26T00:10:48.022Z,18.91
2018-11-26T00:11:47.972Z,18.98
2018-11-26T00:12:47.925Z,18.95
2018-11-26T00:13:47.884Z,18.99
2018-11-26T00:14:47.830Z,18.92
2018-11-26T00:15:47.781Z,18.90
2018-11-26T00:16:47.734Z,19.00
2018-11-26T00:17:47.687Z,18.95
2018-11-26T00:18:47.640Z,19.00
2018-11-26T00:19:47.599Z,18.92
2018-11-26T00:20:47.544Z,18.92
2018-11-26T00:21:47.496Z,18.99
2018-11-26T00:22:47.449Z,18.98
2018-11-26T00:23:47.401Z,18.95
2018-11-26T00:24:47.352Z,18.99
2018-11-26T00:25:47.305Z,19.00
2018-11-26T00:26:47.258Z,19.04
2018-11-26T00:27:47.209Z,19.04
2018-11-26T00:28:47.162Z,19.13
2018-11-26T00:29:47.116Z,19.11
2018-11-26T00:30:47.067Z,19.06
2018-11-26T00:31:47.018Z,19.10
2018-11-26T00:32:46.971Z,19.10
2018-11-26T00:33:46.924Z,19.08
2018-11-26T00:34:46.876Z,19.22
2018-11-26T00:35:46.827Z,19.22
2018-11-26T00:36:46.783Z,19.21
2018-11-26T00:37:46.732Z,19.16
2018-11-26T00:38:46.685Z,19.16
2018-11-26T00:39:46.637Z,19.11
2018-11-26T00:40:46.590Z,19.22
2018-11-26T00:41:46.542Z,19.10
2018-11-26T00:42:46.494Z,19.11
2018-11-26T00:43:46.811Z,19.10
2018-11-26T00:44:46.399Z,19.11
2018-11-26T00:45:46.354Z,19.22
2018-11-26T00:46:46.313Z,19.10
2018-11-26T00:47:46.257Z,19.22
2018-11-26T00:48:46.208Z,19.08
2018-11-26T00:49:46.161Z,19.11
2018-11-26T00:50:46.113Z,19.07
2018-11-26T00:51:46.065Z,19.10
2018-11-26T00:52:46.017Z,19.10
2018-11-26T00:53:45.973Z,19.08
2018-11-26T00:54:45.923Z,19.11
2018-11-26T00:55:45.875Z,19.11
2018-11-26T00:56:45.827Z,19.07
2018-11-26T00:57:45.779Z,19.14
2018-11-26T00:58:45.734Z,19.06
2018-11-26T00:59:45.683Z,19.08
2018-11-26T01:00:45.639Z,19.10
2018-11-26T01:01:45.589Z,19.07
2018-11-26T01:02:45.541Z,19.08
2018-11-26T01:03:45.493Z,19.10
2018-11-26T01:04:45.446Z,19.07
2018-11-26T01:05:45.398Z,19.13
2018-11-26T01:06:45.353Z,19.10
2018-11-26T01:07:45.303Z,19.11
2018-11-26T01:08:45.255Z,19.08
2018-11-26T01:09:45.208Z,19.11
2018-11-26T01:10:45.160Z,19.16
2018-11-26T01:11:45.115Z,19.16
2018-11-26T01:12:45.065Z,19.08
2018-11-26T01:13:45.019Z,19.07
2018-11-26T01:14:44.973Z,19.13
2018-11-26T01:15:44.921Z,19.11
2018-11-26T01:16:44.876Z,19.08
2018-11-26T01:17:44.826Z,19.04
2018-11-26T01:18:44.799Z,19.10
2018-11-26T01:19:44.731Z,19.10
2018-11-26T01:20:44.684Z,19.10
2018-11-26T01:21:44.636Z,19.11
2018-11-26T01:22:44.589Z,19.02
2018-11-26T01:23:44.540Z,19.02
2018-11-26T01:24:44.492Z,19.08
2018-11-26T01:25:44.452Z,19.06
2018-11-26T01:26:44.398Z,19.07
2018-11-26T01:27:44.354Z,19.11
2018-11-26T01:28:44.302Z,19.13
2018-11-26T01:29:44.259Z,19.13
2018-11-26T01:30:44.207Z,19.06
2018-11-26T01:31:44.159Z,19.07
2018-11-26T01:32:44.145Z,19.08
2018-11-26T01:33:44.064Z,19.02
2018-11-26T01:34:44.017Z,19.10
2018-11-26T01:35:43.968Z,19.07
2018-11-26T01:36:43.921Z,19.07
2018-11-26T01:37:43.873Z,19.10
2018-11-26T01:38:43.829Z,19.07
2018-11-26T01:39:43.778Z,19.11
2018-11-26T01:40:43.730Z,19.08
2018-11-26T01:41:43.683Z,19.13
2018-11-26T01:42:43.635Z,19.08
2018-11-26T01:43:43.587Z,19.06
2018-11-26T01:44:43.544Z,19.06
2018-11-26T01:45:43.492Z,19.10
2018-11-26T01:46:43.445Z,19.06
2018-11-26T01:47:43.400Z,19.11
2018-11-26T01:48:43.399Z,19.06
2018-11-26T01:49:43.308Z,19.13
2018-11-26T01:50:43.254Z,19.04
2018-11-26T01:51:43.206Z,19.10
2018-11-26T01:52:43.162Z,19.10
2018-11-26T01:53:43.112Z,19.07
2018-11-26T01:54:43.063Z,19.16
2018-11-26T01:55:43.015Z,19.22
2018-11-26T01:56:42.968Z,19.25
2018-11-26T01:57:42.921Z,19.18
2018-11-26T01:58:42.877Z,19.14
2018-11-26T01:59:42.825Z,19.18
2018-11-26T02:00:42.777Z,19.21
2018-11-26T02:01:42.732Z,19.16
2018-11-26T02:02:42.682Z,19.23
2018-11-26T02:03:42.634Z,19.22
2018-11-26T02:04:42.586Z,19.21
2018-11-26T02:05:42.539Z,19.16
2018-11-26T02:06:42.491Z,19.21
2018-11-26T02:07:42.445Z,19.14
2018-11-26T02:08:42.399Z,19.16
2018-11-26T02:09:42.350Z,19.14
2018-11-26T02:10:42.301Z,19.16
2018-11-26T02:11:42.253Z,19.18
2018-11-26T02:12:42.522Z,19.06
2018-11-26T02:13:42.167Z,19.11
2018-11-26T02:14:42.111Z,19.19
2018-11-26T02:15:42.062Z,19.21
2018-11-26T02:16:42.015Z,19.08
2018-11-26T02:17:41.971Z,19.07
2018-11-26T02:18:41.918Z,19.07
2018-11-26T02:19:41.872Z,19.11
2018-11-26T02:20:41.826Z,19.04
2018-11-26T02:21:41.777Z,19.10
2018-11-26T02:22:41.729Z,19.08
2018-11-26T02:23:41.681Z,19.13
2018-11-26T02:24:41.634Z,19.10
2018-11-26T02:25:41.586Z,19.14
2018-11-26T02:26:41.539Z,19.07
2018-11-26T02:27:41.531Z,19.06
2018-11-26T02:28:41.443Z,19.08
2018-11-26T02:29:41.396Z,19.02
2018-11-26T02:30:41.348Z,19.08
2018-11-26T02:31:41.300Z,19.08
2018-11-26T02:32:41.253Z,19.11
2018-11-26T02:33:41.209Z,19.08
2018-11-26T02:34:41.157Z,19.08
2018-11-26T02:35:41.152Z,19.08
2018-11-26T02:36:41.063Z,19.14
2018-11-26T02:37:41.014Z,19.10
2018-11-26T02:38:40.968Z,19.06
2018-11-26T02:39:40.920Z,19.07
2018-11-26T02:40:40.873Z,19.06
2018-11-26T02:41:40.823Z,19.11
2018-11-26T02:42:40.776Z,19.10
2018-11-26T02:43:40.727Z,19.11
2018-11-26T02:44:40.680Z,19.08
2018-11-26T02:45:40.634Z,19.10
2018-11-26T02:46:40.586Z,19.16
2018-11-26T02:47:40.537Z,19.08
2018-11-26T02:48:40.489Z,19.07
2018-11-26T02:49:40.446Z,19.11
2018-11-26T02:50:40.394Z,19.08
2018-11-26T02:51:40.347Z,19.04
2018-11-26T02:52:40.399Z,19.07
2018-11-26T02:53:40.251Z,19.02
2018-11-26T02:54:40.204Z,19.07
2018-11-26T02:55:40.155Z,19.00
2018-11-26T02:56:40.108Z,19.07
2018-11-26T02:57:40.062Z,19.08
2018-11-26T02:58:40.015Z,19.11
2018-11-26T02:59:39.965Z,19.07
2018-11-26T03:00:39.917Z,18.99
2018-11-26T03:01:39.870Z,19.04
2018-11-26T03:02:39.824Z,19.04
2018-11-26T03:03:39.774Z,19.08
2018-11-26T03:04:39.737Z,19.06
2018-11-26T03:05:39.679Z,19.08
2018-11-26T03:06:39.632Z,19.07
2018-11-26T03:07:39.583Z,19.02
2018-11-26T03:08:39.535Z,19.14
2018-11-26T03:09:39.489Z,19.02
2018-11-26T03:10:39.441Z,19.07
2018-11-26T03:11:39.392Z,19.08
2018-11-26T03:12:39.345Z,19.02
2018-11-26T03:13:39.301Z,19.10
2018-11-26T03:14:39.250Z,19.11
2018-11-26T03:15:39.202Z,19.08
2018-11-26T03:16:39.157Z,19.11
2018-11-26T03:17:39.107Z,19.08
2018-11-26T03:18:39.059Z,19.08
2018-11-26T03:19:39.011Z,19.07
2018-11-26T03:20:38.965Z,19.14
2018-11-26T03:21:38.916Z,19.10
2018-11-26T03:22:38.869Z,19.13
2018-11-26T03:23:38.822Z,19.08
2018-11-26T03:24:38.773Z,19.06
2018-11-26T03:25:38.725Z,19.10
2018-11-26T03:26:38.680Z,19.04
2018-11-26T03:27:38.629Z,19.07
2018-11-26T03:28:38.584Z,19.19
2018-11-26T03:29:38.534Z,19.07
2018-11-26T03:30:38.487Z,19.07
2018-11-26T03:31:38.438Z,19.02
2018-11-26T03:32:38.391Z,19.10
2018-11-26T03:33:38.343Z,19.06
2018-11-26T03:34:38.297Z,19.11
2018-11-26T03:35:38.248Z,19.11
2018-11-26T03:36:38.207Z,19.10
2018-11-26T03:37:38.155Z,19.11
2018-11-26T03:38:38.108Z,19.07
2018-11-26T03:39:38.058Z,19.06
2018-11-26T03:40:38.326Z,19.13
2018-11-26T03:41:38.278Z,19.07
2018-11-26T03:42:37.914Z,19.07
2018-11-26T03:43:37.865Z,19.11
2018-11-26T03:44:37.818Z,19.07
2018-11-26T03:45:37.771Z,19.10
2018-11-26T03:46:37.724Z,19.10
2018-11-26T03:47:37.675Z,19.06
2018-11-26T03:48:37.626Z,19.13
2018-11-26T03:49:37.580Z,19.06
2018-11-26T03:50:37.533Z,19.11
2018-11-26T03:51:37.484Z,19.10
2018-11-26T03:52:37.438Z,19.14
2018-11-26T03:53:37.392Z,19.10
2018-11-26T03:54:37.383Z,19.07
2018-11-26T03:55:37.293Z,19.10
2018-11-26T03:56:37.250Z,19.06
2018-11-26T03:57:37.204Z,19.11
2018-11-26T03:58:37.153Z,19.04
2018-11-26T03:59:37.102Z,19.06
2018-11-26T04:00:37.155Z,19.08
2018-11-26T04:01:37.008Z,19.10
2018-11-26T04:02:36.960Z,19.19
2018-11-26T04:03:36.914Z,19.10
2018-11-26T04:04:36.864Z,19.16
2018-11-26T04:05:36.817Z,19.11
2018-11-26T04:06:36.776Z,19.16
2018-11-26T04:07:36.723Z,19.25
2018-11-26T04:08:36.674Z,19.22
2018-11-26T04:09:36.626Z,19.18
2018-11-26T04:10:36.586Z,19.21
2018-11-26T04:11:36.538Z,19.14
2018-11-26T04:12:36.482Z,19.18
2018-11-26T04:13:36.435Z,19.22
2018-11-26T04:14:36.388Z,19.21
2018-11-26T04:15:36.341Z,19.16
2018-11-26T04:16:36.294Z,19.18
2018-11-26T04:17:36.244Z,19.22
2018-11-26T04:18:36.197Z,19.23
2018-11-26T04:19:36.148Z,19.23
2018-11-26T04:20:36.101Z,19.18
2018-11-26T04:21:36.054Z,19.11
2018-11-26T04:22:36.007Z,19.16
2018-11-26T04:23:35.958Z,19.16
2018-11-26T04:24:35.911Z,19.18
2018-11-26T04:25:35.864Z,19.22
2018-11-26T04:26:35.831Z,19.13
2018-11-26T04:27:35.767Z,19.16
2018-11-26T04:28:35.720Z,19.21
2018-11-26T04:29:35.672Z,19.21
2018-11-26T04:30:35.625Z,19.07
2018-11-26T04:31:35.577Z,19.10
2018-11-26T04:32:35.533Z,19.10
2018-11-26T04:33:35.482Z,19.10
2018-11-26T04:34:35.435Z,19.07
2018-11-26T04:35:35.386Z,19.08
2018-11-26T04:36:35.338Z,19.08
2018-11-26T04:37:35.291Z,19.11
2018-11-26T04:38:35.244Z,19.00
2018-11-26T04:39:35.195Z,19.07
2018-11-26T04:40:35.155Z,19.04
2018-11-26T04:41:35.100Z,19.07
2018-11-26T04:42:35.053Z,18.99
2018-11-26T04:43:35.004Z,18.99
2018-11-26T04:44:34.957Z,18.95
2018-11-26T04:45:34.909Z,19.02
2018-11-26T04:46:34.862Z,19.02
2018-11-26T04:47:34.822Z,18.98
2018-11-26T04:48:34.766Z,19.02
2018-11-26T04:49:34.719Z,18.99
2018-11-26T04:50:34.671Z,18.98
2018-11-26T04:51:34.623Z,19.02
2018-11-26T04:52:34.575Z,18.98
2018-11-26T04:53:34.528Z,18.98
2018-11-26T04:54:34.491Z,19.02
2018-11-26T04:55:34.435Z,18.98
2018-11-26T04:56:34.384Z,18.98
2018-11-26T04:57:34.397Z,18.99
2018-11-26T04:58:34.289Z,19.04
2018-11-26T04:59:34.241Z,19.00
2018-11-26T05:00:34.194Z,18.99
2018-11-26T05:01:34.148Z,19.06
2018-11-26T05:02:34.099Z,19.04
2018-11-26T05:03:34.059Z,19.00
2018-11-26T05:04:34.003Z,19.04
2018-11-26T05:05:33.964Z,19.13
2018-11-26T05:06:33.908Z,19.11
2018-11-26T05:07:33.860Z,19.13
2018-11-26T05:08:33.812Z,19.06
2018-11-26T05:09:33.764Z,19.07
2018-11-26T05:10:33.717Z,19.06
2018-11-26T05:11:33.669Z,19.14
2018-11-26T05:12:33.622Z,19.02
2018-11-26T05:13:33.624Z,19.08
2018-11-26T05:14:33.577Z,19.07
2018-11-26T05:15:33.481Z,19.10
2018-11-26T05:16:33.430Z,19.13
2018-11-26T05:17:33.383Z,19.08
2018-11-26T05:18:33.336Z,19.11
2018-11-26T05:19:33.287Z,19.06
2018-11-26T05:20:33.240Z,19.08
2018-11-26T05:21:33.193Z,19.11
2018-11-26T05:22:33.145Z,19.13
2018-11-26T05:23:33.097Z,19.10
2018-11-26T05:24:33.053Z,19.06
2018-11-26T05:25:33.002Z,19.07
2018-11-26T05:26:32.954Z,19.04
2018-11-26T05:27:32.906Z,19.07
2018-11-26T05:28:32.860Z,19.02
2018-11-26T05:29:32.812Z,18.99
2018-11-26T05:30:32.764Z,19.04
2018-11-26T05:31:32.715Z,19.04
2018-11-26T05:32:32.668Z,18.99
2018-11-26T05:33:32.623Z,19.07
2018-11-26T05:34:32.576Z,19.04
2018-11-26T05:35:32.524Z,19.02
2018-11-26T05:36:32.477Z,18.99
2018-11-26T05:37:32.430Z,18.99
2018-11-26T05:38:32.382Z,19.04
2018-11-26T05:39:32.333Z,18.99
2018-11-26T05:40:32.286Z,19.02
2018-11-26T05:41:32.239Z,19.11
2018-11-26T05:42:32.191Z,19.02
2018-11-26T05:43:32.143Z,18.99
2018-11-26T05:44:32.095Z,19.02
2018-11-26T05:45:32.048Z,19.02
2018-11-26T05:46:32.006Z,19.11
2018-11-26T05:47:31.952Z,19.04
2018-11-26T05:48:31.905Z,19.00
2018-11-26T05:49:31.857Z,19.02
2018-11-26T05:50:31.811Z,19.04
2018-11-26T05:51:31.761Z,19.00
2018-11-26T05:52:31.714Z,18.99
2018-11-26T05:53:31.667Z,19.00
2018-11-26T05:54:31.621Z,19.04
2018-11-26T05:55:31.570Z,19.04
2018-11-26T05:56:31.526Z,19.04
2018-11-26T05:57:31.476Z,18.99
2018-11-26T05:58:31.429Z,19.14
2018-11-26T05:59:31.380Z,19.04
2018-11-26T06:00:31.333Z,19.04
2018-11-26T06:01:31.286Z,19.06
2018-11-26T06:02:31.238Z,19.00
2018-11-26T06:03:31.189Z,18.99
2018-11-26T06:04:31.142Z,19.02
2018-11-26T06:05:31.094Z,18.99
2018-11-26T06:06:31.047Z,18.95
2018-11-26T06:07:31.003Z,18.95
2018-11-26T06:08:30.957Z,18.91
2018-11-26T06:09:30.909Z,18.92
2018-11-26T06:10:30.856Z,18.99
2018-11-26T06:11:30.808Z,18.95
2018-11-26T06:12:30.761Z,18.95
2018-11-26T06:13:30.714Z,18.88
2018-11-26T06:14:30.666Z,18.94
2018-11-26T06:15:30.617Z,18.99
2018-11-26T06:16:30.570Z,19.00
2018-11-26T06:17:30.522Z,18.98
2018-11-26T06:18:30.475Z,18.90
2018-11-26T06:19:30.426Z,18.95
2018-11-26T06:20:30.379Z,18.95
2018-11-26T06:21:30.332Z,19.00
2018-11-26T06:22:30.284Z,18.99
2018-11-26T06:23:30.235Z,18.95
2018-11-26T06:24:30.188Z,18.95
2018-11-26T06:25:30.141Z,18.98
2018-11-26T06:26:30.095Z,19.02
2018-11-26T06:27:30.045Z,18.94
2018-11-26T06:28:29.997Z,18.95
2018-11-26T06:29:29.950Z,18.92
2018-11-26T06:30:29.904Z,18.95
2018-11-26T06:31:29.856Z,18.98
2018-11-26T06:32:29.810Z,19.02
2018-11-26T06:33:29.760Z,19.02
2018-11-26T06:34:29.711Z,18.99
2018-11-26T06:35:29.663Z,18.95
2018-11-26T06:36:29.616Z,18.95
2018-11-26T06:37:29.568Z,18.99
2018-11-26T06:38:29.521Z,18.98
2018-11-26T06:39:29.472Z,18.99
2018-11-26T06:40:29.425Z,19.00
2018-11-26T06:41:29.377Z,18.98
2018-11-26T06:42:29.330Z,19.00
2018-11-26T06:43:29.281Z,19.00
2018-11-26T06:44:29.234Z,19.00
2018-11-26T06:45:29.186Z,19.02
2018-11-26T06:46:29.139Z,19.02
2018-11-26T06:47:29.091Z,18.99
2018-11-26T06:48:29.043Z,18.99
2018-11-26T06:49:28.997Z,19.02
2018-11-26T06:50:28.951Z,18.95
2018-11-26T06:51:28.899Z,18.95
2018-11-26T06:52:28.852Z,18.99
2018-11-26T06:53:28.805Z,18.99
2018-11-26T06:54:28.757Z,18.91
2018-11-26T06:55:28.709Z,18.91
2018-11-26T06:56:28.661Z,18.94
2018-11-26T06:57:28.614Z,18.99
2018-11-26T06:58:28.571Z,18.99
2018-11-26T06:59:28.518Z,19.00
2018-11-26T07:00:28.471Z,19.00
2018-11-26T07:01:28.423Z,18.98
2018-11-26T07:02:28.401Z,18.98
2018-11-26T07:03:28.327Z,18.99
2018-11-26T07:04:28.279Z,18.99
2018-11-26T07:05:28.276Z,19.04
2018-11-26T07:06:28.185Z,18.98
2018-11-26T07:07:28.137Z,19.07
2018-11-26T07:08:28.089Z,19.04
2018-11-26T07:09:28.040Z,19.04
2018-11-26T07:10:27.994Z,19.06
2018-11-26T07:11:27.951Z,19.07
2018-11-26T07:12:27.898Z,19.07
2018-11-26T07:13:27.851Z,19.10
2018-11-26T07:14:27.809Z,18.98
2018-11-26T07:15:27.755Z,19.00
2018-11-26T07:16:27.715Z,19.00
2018-11-26T07:17:27.663Z,18.98
2018-11-26T07:18:27.615Z,19.00
2018-11-26T07:19:27.563Z,18.99
2018-11-26T07:20:27.517Z,19.06
2018-11-26T07:21:27.469Z,19.06
2018-11-26T07:22:27.422Z,18.99
2018-11-26T07:23:27.374Z,19.00
2018-11-26T07:24:27.326Z,18.95
2018-11-26T07:25:27.279Z,19.00
2018-11-26T07:26:27.231Z,19.00
2018-11-26T07:27:27.204Z,18.92
2018-11-26T07:28:27.135Z,18.99
2018-11-26T07:29:27.095Z,18.99
2018-11-26T07:30:27.044Z,19.02
2018-11-26T07:31:26.998Z,18.95
2018-11-26T07:32:26.949Z,18.92
2018-11-26T07:33:26.898Z,18.94
2018-11-26T07:34:26.850Z,19.00
2018-11-26T07:35:26.805Z,19.02
2018-11-26T07:36:26.754Z,19.04
2018-11-26T07:37:26.706Z,19.00
2018-11-26T07:38:26.657Z,19.00
2018-11-26T07:39:26.611Z,19.06
2018-11-26T07:40:26.562Z,18.95
2018-11-26T07:41:26.518Z,18.92
2018-11-26T07:42:26.467Z,18.99
2018-11-26T07:43:26.419Z,18.98
2018-11-26T07:44:26.373Z,19.07
2018-11-26T07:45:26.324Z,18.99
2018-11-26T07:46:26.276Z,18.98
2018-11-26T07:47:26.228Z,19.04
2018-11-26T07:48:26.181Z,19.02
2018-11-26T07:49:26.134Z,18.94
2018-11-26T07:50:26.086Z,19.00
2018-11-26T07:51:26.041Z,19.00
2018-11-26T07:52:25.990Z,19.07
2018-11-26T07:53:25.943Z,19.11
2018-11-26T07:54:25.895Z,19.08
2018-11-26T07:55:25.849Z,19.08
2018-11-26T07:56:25.798Z,19.07
2018-11-26T07:57:25.752Z,19.16
2018-11-26T07:58:25.704Z,19.07
2018-11-26T07:59:25.656Z,19.21
2018-11-26T08:00:25.609Z,19.16
2018-11-26T08:01:25.561Z,19.21
2018-11-26T08:02:25.514Z,19.18
2018-11-26T08:03:25.465Z,19.14
2018-11-26T08:04:25.421Z,19.14
2018-11-26T08:05:25.374Z,19.18
2018-11-26T08:06:25.322Z,19.22
2018-11-26T08:07:25.280Z,19.13
2018-11-26T08:08:25.233Z,19.11
2018-11-26T08:09:25.180Z,19.14
2018-11-26T08:10:25.131Z,19.16
2018-11-26T08:11:25.084Z,19.14
2018-11-26T08:12:25.036Z,19.16
2018-11-26T08:13:24.988Z,19.14
2018-11-26T08:14:24.942Z,19.21
2018-11-26T08:15:24.892Z,19.18
2018-11-26T08:16:24.846Z,19.16
2018-11-26T08:17:24.798Z,19.16
2018-11-26T08:18:24.750Z,19.21
2018-11-26T08:19:24.710Z,19.10
2018-11-26T08:20:24.655Z,19.07
2018-11-26T08:21:24.607Z,19.10
2018-11-26T08:22:24.560Z,19.02
2018-11-26T08:23:24.512Z,19.02
2018-11-26T08:24:24.464Z,19.16
2018-11-26T08:25:24.415Z,19.07
2018-11-26T08:26:24.370Z,19.08
2018-11-26T08:27:24.321Z,19.07
2018-11-26T08:28:24.274Z,19.00
2018-11-26T08:29:24.230Z,19.04
2018-11-26T08:30:24.185Z,19.00
2018-11-26T08:31:24.129Z,19.04
2018-11-26T08:32:24.084Z,19.04
2018-11-26T08:33:24.086Z,19.02
2018-11-26T08:34:23.991Z,18.99
2018-11-26T08:35:23.939Z,19.02
2018-11-26T08:36:23.892Z,18.95
2018-11-26T08:37:23.845Z,18.98
2018-11-26T08:38:23.797Z,18.95
2018-11-26T08:39:23.749Z,19.02
2018-11-26T08:40:23.702Z,19.04
2018-11-26T08:41:23.670Z,19.04
2018-11-26T08:42:23.607Z,19.11
2018-11-26T08:43:23.560Z,19.11
2018-11-26T08:44:23.512Z,19.16
2018-11-26T08:45:23.464Z,19.08
2018-11-26T08:46:23.470Z,19.10
2018-11-26T08:47:23.368Z,19.08
2018-11-26T08:48:23.320Z,19.10
2018-11-26T08:49:23.273Z,19.07
2018-11-26T08:50:23.225Z,19.07
2018-11-26T08:51:23.177Z,19.04
2018-11-26T08:52:23.129Z,19.08
2018-11-26T08:53:23.082Z,19.07
2018-11-26T08:54:23.042Z,19.07
2018-11-26T08:55:22.986Z,19.18
2018-11-26T08:56:22.937Z,19.10
2018-11-26T08:57:22.894Z,19.04
2018-11-26T08:58:22.845Z,19.11
2018-11-26T08:59:22.796Z,19.10
2018-11-26T09:00:22.753Z,19.06
2018-11-26T09:01:22.701Z,19.02
2018-11-26T09:02:22.653Z,19.16
2018-11-26T09:03:22.606Z,19.10
2018-11-26T09:04:22.557Z,19.07
2018-11-26T09:05:24.279Z,19.06
2018-11-26T09:06:22.462Z,19.07
2018-11-26T09:07:22.414Z,19.06
2018-11-26T09:08:22.367Z,19.04
2018-11-26T09:09:22.318Z,19.00
2018-11-26T09:10:22.272Z,19.06
2018-11-26T09:11:22.223Z,19.00
2018-11-26T09:12:22.176Z,19.14
2018-11-26T09:13:22.129Z,19.07
2018-11-26T09:14:22.081Z,19.06
2018-11-26T09:15:22.034Z,19.06
2018-11-26T09:16:21.985Z,19.08
2018-11-26T09:17:21.939Z,18.99
2018-11-26T09:18:21.891Z,19.07
2018-11-26T09:19:21.842Z,19.04
2018-11-26T09:20:21.794Z,19.02
2018-11-26T09:21:21.758Z,19.00
2018-11-26T09:22:21.700Z,19.07
2018-11-26T09:23:21.651Z,19.00
2018-11-26T09:24:21.604Z,19.02
2018-11-26T09:25:21.556Z,19.07
2018-11-26T09:26:21.509Z,19.00
2018-11-26T09:27:21.462Z,19.07
2018-11-26T09:28:21.417Z,19.07
2018-11-26T09:29:21.366Z,19.07
2018-11-26T09:30:21.319Z,19.07
2018-11-26T09:31:21.270Z,19.11
2018-11-26T09:32:21.221Z,19.10
2018-11-26T09:33:21.178Z,19.13
2018-11-26T09:34:21.128Z,19.08
2018-11-26T09:35:21.079Z,19.10
2018-11-26T09:36:21.032Z,19.06
2018-11-26T09:37:20.984Z,19.08
2018-11-26T09:38:20.937Z,19.07
2018-11-26T09:39:20.892Z,19.11
2018-11-26T09:40:20.840Z,19.16
2018-11-26T09:41:20.796Z,19.08
2018-11-26T09:42:20.746Z,19.04
2018-11-26T09:43:20.698Z,19.07
2018-11-26T09:44:20.651Z,19.13
2018-11-26T09:45:20.603Z,19.07
2018-11-26T09:46:20.556Z,19.14
2018-11-26T09:47:20.507Z,19.08
2018-11-26T09:48:20.460Z,19.07
2018-11-26T09:49:20.413Z,19.02
2018-11-26T09:50:20.365Z,19.07
2018-11-26T09:51:20.316Z,19.08
2018-11-26T09:52:20.269Z,19.11
2018-11-26T09:53:20.222Z,19.04
2018-11-26T09:54:25.771Z,19.16
2018-11-26T09:55:20.125Z,19.13
2018-11-26T09:56:20.078Z,19.02
2018-11-26T09:57:20.031Z,19.08
2018-11-26T09:58:19.983Z,19.11
2018-11-26T09:59:19.935Z,19.10
2018-11-26T10:00:19.887Z,19.08
2018-11-26T10:01:19.842Z,19.06
2018-11-26T10:02:19.793Z,19.14
2018-11-26T10:03:19.744Z,19.16
2018-11-26T10:04:19.697Z,19.04
2018-11-26T10:05:19.652Z,19.08
2018-11-26T10:06:19.602Z,19.08
2018-11-26T10:07:19.554Z,19.11
2018-11-26T10:08:19.506Z,19.07
2018-11-26T10:09:19.459Z,19.10
2018-11-26T10:10:19.412Z,19.06
2018-11-26T10:11:19.372Z,19.10
2018-11-26T10:12:19.316Z,19.10
2018-11-26T10:13:19.267Z,19.08
2018-11-26T10:14:19.221Z,19.08
2018-11-26T10:15:19.173Z,19.07
2018-11-26T10:16:19.129Z,19.11
2018-11-26T10:17:19.083Z,19.14
2018-11-26T10:18:19.033Z,19.13
2018-11-26T10:19:18.982Z,19.16
2018-11-26T10:20:18.940Z,19.08
2018-11-26T10:21:18.890Z,19.10
2018-11-26T10:22:18.840Z,19.11
2018-11-26T10:23:18.791Z,19.08
2018-11-26T10:24:18.744Z,19.19
2018-11-26T10:25:18.703Z,19.22
2018-11-26T10:26:18.650Z,19.19
2018-11-26T10:27:18.602Z,19.21
2018-11-26T10:28:18.553Z,19.21
2018-11-26T10:29:18.506Z,19.25
2018-11-26T10:30:18.464Z,19.19
2018-11-26T10:31:18.414Z,19.22
2018-11-26T10:32:18.364Z,19.21
2018-11-26T10:33:18.315Z,19.26
2018-11-26T10:34:18.269Z,19.19
2018-11-26T10:35:18.221Z,19.08
2018-11-26T10:36:18.180Z,19.21
2018-11-26T10:37:18.126Z,19.22
2018-11-26T10:38:18.078Z,19.16
2018-11-26T10:39:18.031Z,19.19
2018-11-26T10:40:17.983Z,19.11
2018-11-26T10:41:17.938Z,19.22
2018-11-26T10:42:17.887Z,19.11
2018-11-26T10:43:17.840Z,19.10
2018-11-26T10:44:17.793Z,19.11
2018-11-26T10:45:17.747Z,19.06
2018-11-26T10:46:17.698Z,19.10
2018-11-26T10:47:17.648Z,19.04
2018-11-26T10:48:17.602Z,19.11
2018-11-26T10:49:17.555Z,19.10
2018-11-26T10:50:17.508Z,19.11
2018-11-26T10:51:17.462Z,19.04
2018-11-26T10:52:17.412Z,19.11
2018-11-26T10:53:17.364Z,19.11
2018-11-26T10:54:17.317Z,19.08
2018-11-26T10:55:17.269Z,19.08
2018-11-26T10:56:17.221Z,19.10
2018-11-26T10:57:17.173Z,19.08
2018-11-26T10:58:17.127Z,19.08
2018-11-26T10:59:17.078Z,19.06
2018-11-26T11:00:17.031Z,19.11
2018-11-26T11:01:16.985Z,19.11
2018-11-26T11:02:16.936Z,19.07
2018-11-26T11:03:16.887Z,19.22
2018-11-26T11:04:16.840Z,19.10
2018-11-26T11:05:16.793Z,19.21
2018-11-26T11:06:16.746Z,19.13
2018-11-26T11:07:16.697Z,19.10
2018-11-26T11:08:16.649Z,19.22
2018-11-26T11:09:16.602Z,19.22
2018-11-26T11:10:16.553Z,19.16
2018-11-26T11:11:22.955Z,19.08
2018-11-26T11:12:16.459Z,19.07
2018-11-26T11:13:16.411Z,19.10
2018-11-26T11:14:16.366Z,19.08
2018-11-26T11:15:16.316Z,19.10
2018-11-26T11:16:16.271Z,19.10
2018-11-26T11:17:16.221Z,19.07
2018-11-26T11:18:16.174Z,19.02
2018-11-26T11:19:16.124Z,19.10
2018-11-26T11:20:16.083Z,19.08
2018-11-26T11:21:16.030Z,19.04
2018-11-26T11:22:15.983Z,19.07
2018-11-26T11:23:15.933Z,19.07
2018-11-26T11:24:15.887Z,19.16
2018-11-26T11:25:15.840Z,19.22
2018-11-26T11:26:15.791Z,19.14
2018-11-26T11:27:15.744Z,19.18
2018-11-26T11:28:15.696Z,19.18
2018-11-26T11:29:15.648Z,19.23
2018-11-26T11:30:15.602Z,19.21
2018-11-26T11:31:15.552Z,19.11
2018-11-26T11:32:15.504Z,19.14
2018-11-26T11:33:54.761Z,19.18
2018-11-26T11:34:54.711Z,19.14
2018-11-26T11:35:54.663Z,19.18
2018-11-26T11:36:54.616Z,19.22
2018-11-26T11:37:54.568Z,19.22
2018-11-26T11:38:54.521Z,19.28
2018-11-26T11:39:54.473Z,19.21
2018-11-26T11:40:54.474Z,19.19
2018-11-26T11:41:54.377Z,19.22
2018-11-26T11:42:54.330Z,19.25
2018-11-26T11:43:54.282Z,19.23
2018-11-26T11:44:54.274Z,19.32
2018-11-26T11:45:54.186Z,19.28
2018-11-26T11:46:54.140Z,19.28
2018-11-26T11:47:54.090Z,19.28
2018-11-26T11:48:54.194Z,19.26
2018-11-26T11:49:53.997Z,19.32
2018-11-26T11:50:53.948Z,19.25
2018-11-26T11:51:53.900Z,19.29
2018-11-26T11:52:53.853Z,19.29
2018-11-26T11:53:53.804Z,19.23
2018-11-26T11:54:53.758Z,19.14
2018-11-26T11:55:53.710Z,19.14
2018-11-26T11:56:53.665Z,19.11
2018-11-26T11:57:53.621Z,19.18
2018-11-26T11:58:53.568Z,19.16
2018-11-26T11:59:53.519Z,19.22
2018-11-26T12:00:53.472Z,19.18
2018-11-26T12:01:53.425Z,19.18
2018-11-26T12:02:53.377Z,19.19
2018-11-26T12:03:53.328Z,19.18
2018-11-26T12:04:53.281Z,19.14
2018-11-26T12:05:53.239Z,19.19
2018-11-26T12:06:53.186Z,19.16
2018-11-26T12:07:53.138Z,19.19
2018-11-26T12:08:53.092Z,19.22
2018-11-26T12:09:53.144Z,19.19
2018-11-26T12:10:53.000Z,19.18
2018-11-26T12:11:52.947Z,19.19
2018-11-26T12:12:52.899Z,19.21
2018-11-26T12:13:52.852Z,19.21
2018-11-26T12:14:52.812Z,19.07
2018-11-26T12:15:52.757Z,19.07
2018-11-26T12:16:52.709Z,19.07
2018-11-26T12:17:52.665Z,19.07
2018-11-26T12:18:52.615Z,19.08
2018-11-26T12:19:52.567Z,19.06
2018-11-26T12:20:52.518Z,19.07
2018-11-26T12:21:52.470Z,19.11
2018-11-26T12:22:52.424Z,19.08
2018-11-26T12:23:52.378Z,19.02
2018-11-26T12:24:52.327Z,19.04
2018-11-26T12:25:52.280Z,19.07
2018-11-26T12:26:52.232Z,19.16
2018-11-26T12:27:52.185Z,19.06
2018-11-26T12:28:52.137Z,19.10
2018-11-26T12:29:52.090Z,19.06
2018-11-26T12:30:52.041Z,19.11
2018-11-26T12:31:51.993Z,19.07
2018-11-26T12:32:51.944Z,19.11
2018-11-26T12:33:51.899Z,19.04
2018-11-26T12:34:51.855Z,19.08
2018-11-26T12:35:51.804Z,19.16
2018-11-26T12:36:51.754Z,19.11
2018-11-26T12:37:51.706Z,19.18
2018-11-26T12:38:51.660Z,19.23
2018-11-26T12:39:51.612Z,19.18
2018-11-26T12:40:51.564Z,19.16
2018-11-26T12:41:51.616Z,19.28
2018-11-26T12:42:51.469Z,19.28
2018-11-26T12:43:51.421Z,19.31
2018-11-26T12:44:51.374Z,19.32
2018-11-26T12:45:51.325Z,19.28
2018-11-26T12:46:51.279Z,19.31
2018-11-26T12:47:51.230Z,19.28
2018-11-26T12:48:51.182Z,19.40
2018-11-26T12:49:51.138Z,19.40
2018-11-26T12:50:51.088Z,19.39
2018-11-26T12:51:51.039Z,19.33
2018-11-26T12:52:50.992Z,19.39